Time;durP1;ratioP1;P1;durP2;ratioP2;P2;SDS_P1;SDS_P2;PMS_P1;PMS_P2;Temp;Humidity;BMP_temperature;BMP_pressure;BME280_temperature;BME280_humidity;BME280_pressure;Samples;Min_cycle;Max_cycle;Signal;HPM_P1;HPM_P2
2022/06/03 00:05:03;;;;;;;1.55;1.30;;;18.50;60.60;;;;;;10417688;28;20045;-46
2022/06/03 00:10:26;;;;;;;1.83;1.17;;;18.50;60.50;;;;;;10408452;28;20034;-46
2022/06/03 00:15:49;;;;;;;1.58;1.15;;;18.50;60.50;;;;;;10417064;28;20029;-46
2022/06/03 00:21:15;;;;;;;2.03;1.20;;;18.50;60.50;;;;;;10417314;28;20493;-49
2022/06/03 00:26:47;;;;;;;1.75;1.35;;;18.50;60.50;;;;;;10431535;28;20037;-47
2022/06/03 00:32:28;;;;;;;1.33;1.00;;;18.50;60.60;;;;;;10416518;28;20041;-49
2022/06/03 00:37:47;;;;;;;1.52;1.17;;;18.50;60.50;;;;;;10416228;28;20046;-47
2022/06/03 00:43:01;;;;;;;1.35;1.05;;;18.50;60.60;;;;;;10416392;28;20041;-52
2022/06/03 00:48:42;;;;;;;1.58;1.33;;;18.50;60.60;;;;;;10416040;28;20041;-52
2022/06/03 00:54:32;;;;;;;2.28;1.10;;;18.50;60.60;;;;;;10428509;28;20037;-47
2022/06/03 01:00:00;;;;;;;1.30;1.10;;;18.50;60.60;;;;;;10415823;28;20037;-46
2022/06/03 01:05:38;;;;;;;1.40;1.00;;;18.50;60.70;;;;;;10415336;28;20669;-46
2022/06/03 01:11:14;;;;;;;1.45;1.00;;;18.50;60.70;;;;;;10414952;28;20037;-48
2022/06/03 01:17:00;;;;;;;0.88;0.70;;;18.50;60.80;;;;;;10402231;28;20073;-47
2022/06/03 01:22:19;;;;;;;1.40;1.30;;;18.40;60.80;;;;;;10403282;28;20041;-50
2022/06/03 01:27:58;;;;;;;1.13;0.90;;;18.40;60.90;;;;;;10414498;28;20034;-48
2022/06/03 01:33:44;;;;;;;1.42;0.93;;;18.40;60.80;;;;;;10414197;28;20053;-47
2022/06/03 01:39:34;;;;;;;1.58;1.33;;;18.40;60.70;;;;;;10407329;28;20444;-47
2022/06/03 01:45:05;;;;;;;1.47;1.23;;;18.40;60.70;;;;;;10413928;28;20068;-47
2022/06/03 01:50:40;;;;;;;2.10;1.40;;;18.40;60.70;;;;;;10413841;28;20036;-52
2022/06/03 01:56:32;;;;;;;1.45;0.93;;;18.40;60.70;;;;;;10402848;28;20049;-51
2022/06/03 02:02:14;;;;;;;1.50;1.15;;;18.40;60.70;;;;;;10400949;28;20037;-47
2022/06/03 02:07:35;;;;;;;1.17;1.00;;;18.40;60.70;;;;;;10412942;28;20033;-47
2022/06/03 02:13:22;;;;;;;1.48;1.17;;;18.40;60.80;;;;;;10400125;28;20038;-48
2022/06/03 02:18:31;;;;;;;2.05;1.30;;;18.40;60.80;;;;;;10406830;28;20075;-47
2022/06/03 02:23:57;;;;;;;1.50;1.00;;;18.40;60.80;;;;;;10428177;28;20033;-51
2022/06/03 02:35:17;;;;;;;1.20;0.93;;;18.40;60.90;;;;;;10412746;28;20489;-52
2022/06/03 02:40:42;;;;;;;1.35;0.98;;;18.40;61.00;;;;;;10412344;28;20037;-48
2022/06/03 02:46:03;;;;;;;1.63;1.10;;;18.40;61.00;;;;;;10411293;28;20041;-48
2022/06/03 02:51:42;;;;;;;1.15;0.90;;;18.40;61.00;;;;;;10424736;28;20374;-48
2022/06/03 02:57:04;;;;;;;3.25;1.40;;;18.40;61.00;;;;;;10418249;28;20116;-48
2022/06/03 03:02:52;;;;;;;2.08;1.27;;;18.40;60.90;;;;;;10418108;28;20126;-47
2022/06/03 03:08:26;;;;;;;1.48;1.15;;;18.40;60.90;;;;;;10417387;28;20033;-50
2022/06/03 03:13:52;;;;;;;1.42;1.15;;;18.40;60.90;;;;;;10414916;28;20029;-47
2022/06/03 03:19:17;;;;;;;1.60;1.23;;;18.30;60.90;;;;;;10418857;28;20121;-49
2022/06/03 03:24:56;;;;;;;2.17;1.05;;;18.30;60.90;;;;;;10416617;28;20116;-50
2022/06/03 03:30:14;;;;;;;1.75;1.35;;;18.30;60.90;;;;;;10431076;28;20029;-46
2022/06/03 03:35:49;;;;;;;1.40;1.05;;;18.30;60.90;;;;;;10416448;28;20042;-47
2022/06/03 03:41:57;;;;;;;1.30;1.02;;;18.30;61.00;;;;;;10417725;28;20040;-47
2022/06/03 03:47:35;;;;;;;1.48;0.80;;;18.30;60.90;;;;;;10346102;28;20038;-50
2022/06/03 03:53:13;;;;;;;1.70;1.20;;;18.30;61.00;;;;;;10401328;28;20045;-51
2022/06/03 03:59:16;;;;;;;1.65;1.13;;;18.30;61.00;;;;;;10412539;28;20092;-52
2022/06/03 04:04:31;;;;;;;1.85;1.25;;;18.30;61.10;;;;;;10414677;28;20108;-47
2022/06/03 04:10:28;;;;;;;1.88;1.10;;;18.30;61.10;;;;;;10416918;28;20184;-47
2022/06/03 04:16:25;;;;;;;2.08;1.13;;;18.30;61.20;;;;;;10413793;28;20030;-47
2022/06/03 04:21:48;;;;;;;1.40;0.98;;;18.30;61.10;;;;;;10388766;28;20083;-49
2022/06/03 04:27:23;;;;;;;1.15;1.05;;;18.30;61.10;;;;;;10414882;28;20041;-47
2022/06/03 04:33:27;;;;;;;1.77;1.02;;;18.30;61.20;;;;;;10414757;28;20354;-47
2022/06/03 04:39:26;;;;;;;1.60;1.23;;;18.30;61.10;;;;;;10400520;28;20045;-47
2022/06/03 04:45:29;;;;;;;1.77;1.33;;;18.30;61.20;;;;;;10416439;28;20414;-51
2022/06/03 04:51:28;;;;;;;2.88;0.80;;;18.30;61.20;;;;;;10392800;28;20155;-54
2022/06/03 04:57:02;;;;;;;3.03;1.20;;;18.20;61.50;;;;;;10417681;28;20033;-57
2022/06/03 05:02:51;;;;;;;2.83;1.40;;;18.30;62.00;;;;;;10406764;28;20047;-56
2022/06/03 05:08:16;;;;;;;6.65;1.67;;;18.40;62.70;;;;;;10401999;28;20038;-55
2022/06/03 05:13:25;;;;;;;7.28;1.73;;;18.40;62.50;;;;;;10401106;28;20033;-55
2022/06/03 05:18:42;;;;;;;4.20;1.67;;;18.40;63.30;;;;;;10416318;28;20033;-55
2022/06/03 05:24:17;;;;;;;8.05;1.80;;;18.40;63.20;;;;;;10415046;28;20038;-46
2022/06/03 05:30:04;;;;;;;7.93;2.10;;;18.50;63.40;;;;;;10429533;28;20125;-50
2022/06/03 05:35:20;;;;;;;12.27;2.60;;;18.50;63.40;;;;;;10408048;28;20141;-46
2022/06/03 05:40:49;;;;;;;11.45;2.42;;;18.40;62.80;;;;;;10411824;28;20405;-51
2022/06/03 05:46:35;;;;;;;6.30;2.10;;;18.40;63.00;;;;;;10410900;28;20052;-51
2022/06/03 05:52:04;;;;;;;5.68;1.75;;;18.40;63.00;;;;;;10407901;28;20042;-56
2022/06/03 05:57:22;;;;;;;9.35;3.33;;;18.40;62.60;;;;;;10412159;28;20033;-56
2022/06/03 06:02:58;;;;;;;11.50;4.67;;;18.40;61.80;;;;;;10413587;28;20041;-55
2022/06/03 06:08:24;;;;;;;8.02;3.33;;;18.40;61.50;;;;;;10400852;28;20041;-56
2022/06/03 06:14:02;;;;;;;15.13;4.18;;;18.50;61.60;;;;;;10406548;28;20067;-51
2022/06/03 06:19:17;;;;;;;9.43;3.67;;;18.40;61.30;;;;;;10410982;28;20041;-54
2022/06/03 06:24:39;;;;;;;14.13;3.60;;;18.40;61.30;;;;;;10397753;28;20060;-54
2022/06/03 06:29:40;;;;;;;11.02;3.47;;;18.40;61.00;;;;;;10409642;28;20034;-54
2022/06/03 06:35:24;;;;;;;12.38;3.70;;;18.40;60.80;;;;;;10410336;28;20060;-54
2022/06/03 06:41:04;;;;;;;17.33;3.60;;;18.40;61.10;;;;;;10408336;28;20041;-55
2022/06/03 06:46:17;;;;;;;11.18;3.35;;;18.40;61.10;;;;;;10410458;28;20112;-54
2022/06/03 06:52:14;;;;;;;10.25;3.30;;;18.40;60.90;;;;;;10408449;28;20119;-55
2022/06/03 06:57:45;;;;;;;11.20;3.58;;;18.40;60.70;;;;;;10403773;28;20025;-54
2022/06/03 07:02:54;;;;;;;9.85;4.03;;;18.40;60.50;;;;;;10411493;28;20029;-54
2022/06/03 07:08:14;;;;;;;16.02;3.13;;;18.40;60.10;;;;;;10411312;28;20032;-54
2022/06/03 07:13:38;;;;;;;9.57;3.22;;;18.40;59.90;;;;;;10406207;28;20033;-55
2022/06/03 07:24:45;;;;;;;4.55;2.95;;;18.50;59.50;;;;;;10422432;28;20121;-54
2022/06/03 07:30:09;;;;;;;6.28;2.72;;;18.50;59.30;;;;;;10425270;28;20036;-54
2022/06/03 07:35:51;;;;;;;6.05;2.55;;;18.50;59.50;;;;;;10404110;28;20041;-55
2022/06/03 07:41:03;;;;;;;8.63;3.17;;;18.50;59.30;;;;;;10405338;28;20076;-53
2022/06/03 07:47:02;;;;;;;6.38;2.55;;;18.50;59.40;;;;;;10416539;28;20029;-54
2022/06/03 07:53:05;;;;;;;5.47;2.75;;;18.50;59.30;;;;;;10401199;28;20053;-56
2022/06/03 07:58:15;;;;;;;6.43;2.53;;;18.50;59.40;;;;;;10405809;28;20053;-55
2022/06/03 08:03:26;;;;;;;9.93;3.42;;;18.60;59.60;;;;;;10416296;28;20029;-55
2022/06/03 08:13:56;;;;;;;6.50;2.45;;;18.60;59.60;;;;;;10429049;28;20057;-55
2022/06/03 08:19:05;;;;;;;5.22;2.53;;;18.60;59.50;;;;;;10415173;28;20387;-54
2022/06/03 08:24:12;;;;;;;5.50;2.58;;;18.60;59.50;;;;;;10423497;28;20044;-56
2022/06/03 08:29:25;;;;;;;4.15;2.50;;;18.60;59.70;;;;;;10431498;28;20140;-56
2022/06/03 08:34:43;;;;;;;4.45;2.22;;;18.70;59.90;;;;;;10415584;28;20041;-57
2022/06/03 08:39:46;;;;;;;4.90;2.80;;;18.60;59.90;;;;;;10428586;28;20347;-57
2022/06/03 08:45:40;;;;;;;4.15;2.70;;;18.70;59.80;;;;;;10414346;28;20041;-56
2022/06/03 08:50:57;;;;;;;6.82;2.40;;;18.70;59.90;;;;;;10413024;28;20083;-56
2022/06/03 08:56:14;;;;;;;13.88;3.00;;;18.70;60.10;;;;;;10414018;28;20063;-56
2022/06/03 09:01:21;;;;;;;12.00;2.63;;;18.70;60.40;;;;;;10429776;28;20033;-56
2022/06/03 09:06:42;;;;;;;6.90;2.90;;;18.70;60.30;;;;;;10421108;28;20037;-56
2022/06/03 09:12:03;;;;;;;10.32;2.83;;;18.70;60.30;;;;;;10414034;28;20037;-56
2022/06/03 09:17:31;;;;;;;6.13;2.85;;;18.70;60.50;;;;;;10413475;28;20033;-56
2022/06/03 09:22:32;;;;;;;6.45;2.97;;;18.70;60.50;;;;;;10403438;28;20044;-55
2022/06/03 09:27:35;;;;;;;6.03;2.90;;;18.80;60.70;;;;;;10413254;28;20778;-57
2022/06/03 09:32:49;;;;;;;5.95;2.67;;;18.80;60.70;;;;;;10413438;28;20060;-57
2022/06/03 09:37:55;;;;;;;8.32;3.20;;;18.80;60.70;;;;;;10411476;28;20378;-57
2022/06/03 09:43:10;;;;;;;8.18;2.42;;;18.80;60.70;;;;;;10412279;28;20025;-56
2022/06/03 09:48:11;;;;;;;7.25;3.15;;;18.80;60.60;;;;;;10413504;28;20029;-57
2022/06/03 09:53:12;;;;;;;5.18;2.33;;;18.80;60.80;;;;;;10411939;28;20040;-57
2022/06/03 09:58:19;;;;;;;4.10;2.05;;;18.80;60.90;;;;;;10394955;28;20602;-57
2022/06/03 10:03:21;;;;;;;6.93;2.55;;;18.80;61.00;;;;;;10411754;28;20029;-57
2022/06/03 10:12:48;;;;;;;5.88;2.22;;;18.80;61.10;;;;;;10411719;28;20030;-57
2022/06/03 10:13:51;;;;;;;3.97;2.30;;;18.80;61.10;;;;;;10398378;28;20427;-57
2022/06/03 10:18:52;;;;;;;5.20;2.15;;;18.90;61.20;;;;;;10412837;28;20053;-57
2022/06/03 10:23:52;;;;;;;3.75;1.90;;;18.90;61.30;;;;;;10411622;28;20168;-57
2022/06/03 10:28:56;;;;;;;7.15;2.40;;;18.90;61.30;;;;;;10412839;28;20389;-56
2022/06/03 10:34:01;;;;;;;7.65;2.28;;;18.90;61.30;;;;;;10412234;28;20055;-56
2022/06/03 10:39:03;;;;;;;3.78;1.75;;;18.90;61.00;;;;;;10412046;28;20036;-56
2022/06/03 10:44:25;;;;;;;4.32;2.03;;;19.00;60.70;;;;;;10427736;28;20040;-56
2022/06/03 10:49:30;;;;;;;3.97;1.90;;;19.00;60.50;;;;;;10412721;28;20416;-56
2022/06/03 11:05:30;;;;;;;4.88;2.08;;;19.10;59.70;;;;;;10420622;28;20188;-56
2022/06/03 11:10:43;;;;;;;3.65;2.08;;;19.10;59.40;;;;;;10413235;28;20021;-56
2022/06/03 11:15:47;;;;;;;3.50;1.80;;;19.20;59.20;;;;;;10416104;28;20381;-57
2022/06/03 11:20:52;;;;;;;9.48;2.45;;;19.20;59.10;;;;;;10418969;28;20041;-56
2022/06/03 11:26:00;;;;;;;2.88;1.77;;;19.20;58.10;;;;;;10418796;28;20450;-55
2022/06/03 11:31:12;;;;;;;4.88;1.88;;;19.30;58.80;;;;;;10412868;28;20121;-56
2022/06/03 11:36:29;;;;;;;6.13;1.92;;;19.30;58.70;;;;;;10415753;28;20501;-56
2022/06/03 11:41:37;;;;;;;9.02;2.38;;;19.30;58.60;;;;;;10415947;28;20497;-56
2022/06/03 11:47:15;;;;;;;11.63;3.50;;;19.30;59.50;;;;;;10412322;28;20029;-57
2022/06/03 11:52:16;;;;;;;24.30;3.53;;;19.40;59.20;;;;;;10415829;28;20079;-56
2022/06/03 11:57:17;;;;;;;8.30;3.00;;;19.40;59.10;;;;;;10414450;28;20080;-56
2022/06/03 12:02:31;;;;;;;6.57;2.38;;;19.40;58.80;;;;;;10416406;28;20155;-56
2022/06/03 12:08:16;;;;;;;9.07;2.30;;;19.40;58.90;;;;;;10416167;28;20073;-56
2022/06/03 12:13:26;;;;;;;6.63;2.35;;;19.40;59.10;;;;;;10407671;28;20045;-56
2022/06/03 12:18:34;;;;;;;13.15;3.00;;;19.40;59.30;;;;;;10416617;28;20033;-54
2022/06/03 12:23:38;;;;;;;11.55;2.85;;;19.40;61.10;;;;;;10416222;28;20044;-53
2022/06/03 12:28:42;;;;;;;12.68;2.97;;;19.50;59.90;;;;;;10415628;28;20121;-55
2022/06/03 12:33:58;;;;;;;7.63;2.80;;;19.50;60.00;;;;;;10402284;28;20049;-54
2022/06/03 12:39:22;;;;;;;9.02;2.67;;;19.40;59.60;;;;;;10399694;28;20044;-53
2022/06/03 12:45:13;;;;;;;8.95;2.65;;;19.40;59.50;;;;;;10416061;28;20037;-54
2022/06/03 12:50:29;;;;;;;6.70;2.00;;;19.40;59.70;;;;;;10414636;28;20125;-54
2022/06/03 12:55:36;;;;;;;5.90;2.42;;;19.40;59.80;;;;;;10416660;28;20037;-55
2022/06/03 13:00:51;;;;;;;8.63;2.13;;;19.40;59.80;;;;;;10415419;28;20541;-54
2022/06/03 13:05:58;;;;;;;5.68;2.20;;;19.40;59.90;;;;;;10408687;28;20033;-55
2022/06/03 13:10:59;;;;;;;3.63;2.35;;;19.40;60.00;;;;;;10405892;28;20030;-55
2022/06/03 13:16:35;;;;;;;5.28;1.80;;;19.50;60.10;;;;;;10406712;28;20035;-54
2022/06/03 13:21:58;;;;;;;4.70;1.83;;;19.50;60.10;;;;;;10414997;28;20112;-55
2022/06/03 13:27:20;;;;;;;4.80;1.98;;;19.50;60.20;;;;;;10410881;28;20029;-54
2022/06/03 13:32:36;;;;;;;5.32;1.80;;;19.50;60.40;;;;;;10403306;28;20446;-53
2022/06/03 13:37:49;;;;;;;6.95;2.13;;;19.50;60.40;;;;;;10413099;28;20463;-52
2022/06/03 13:43:21;;;;;;;3.40;1.70;;;19.90;62.70;;;;;;10411885;28;20026;-54
2022/06/03 13:48:37;;;;;;;4.15;2.38;;;19.80;61.70;;;;;;10408141;28;20512;-55
2022/06/03 13:53:47;;;;;;;3.38;1.60;;;19.70;61.70;;;;;;10419263;28;20037;-51
2022/06/03 13:58:48;;;;;;;4.22;1.85;;;19.60;61.80;;;;;;10409740;28;20359;-54
2022/06/03 14:04:01;;;;;;;2.75;2.00;;;19.60;61.80;;;;;;10408562;28;20033;-54
2022/06/03 14:09:20;;;;;;;8.40;2.30;;;19.60;61.70;;;;;;10410397;28;20029;-55
2022/06/03 14:14:33;;;;;;;;;;;19.60;61.60;;;;;;10401875;28;20045;-55
2022/06/03 14:19:45;;;;;;;4.53;2.00;;;19.60;61.50;;;;;;10413864;28;20364;-55
2022/06/03 14:25:23;;;;;;;4.38;1.67;;;19.50;61.50;;;;;;10412295;28;20029;-54
2022/06/03 14:30:48;;;;;;;7.28;1.98;;;19.50;61.30;;;;;;10400226;28;20041;-55
2022/06/03 14:35:56;;;;;;;4.65;2.58;;;19.50;61.20;;;;;;10411046;28;20053;-54
2022/06/03 14:40:58;;;;;;;5.07;1.92;;;19.50;61.10;;;;;;10412089;28;20022;-54
2022/06/03 14:46:04;;;;;;;5.80;2.40;;;19.50;60.90;;;;;;10416219;28;20029;-53
2022/06/03 14:51:12;;;;;;;2.83;1.95;;;19.50;60.70;;;;;;10437389;28;20037;-55
2022/06/03 14:56:53;;;;;;;6.95;2.50;;;19.50;60.50;;;;;;10419139;28;20038;-55
2022/06/03 15:02:22;;;;;;;;;;;19.60;60.10;;;;;;10421243;28;20397;-55
2022/06/03 15:08:11;;;;;;;4.45;2.92;;;19.50;58.70;;;;;;10418549;28;19960;-56
2022/06/03 15:13:27;;;;;;;2.78;2.00;;;19.60;60.00;;;;;;10406363;28;20537;-55
2022/06/03 15:18:27;;;;;;;3.58;2.20;;;19.50;59.90;;;;;;10421164;28;20585;-55
2022/06/03 15:23:28;;;;;;;5.18;2.80;;;19.50;59.60;;;;;;10419081;28;20116;-55
2022/06/03 15:28:29;;;;;;;8.10;2.70;;;19.60;54.80;;;;;;10418825;28;20437;-57
2022/06/03 15:33:36;;;;;;;12.65;2.88;;;19.60;58.70;;;;;;10412175;28;20041;-55
2022/06/03 15:38:41;;;;;;;15.02;3.70;;;19.60;59.10;;;;;;10408920;28;20083;-56
2022/06/03 15:43:52;;;;;;;9.48;2.97;;;19.60;59.20;;;;;;10391211;28;20030;-55
2022/06/03 15:49:04;;;;;;;7.10;3.05;;;19.60;58.20;;;;;;10398763;28;20088;-55
2022/06/03 15:54:05;;;;;;;5.93;3.70;;;19.60;59.30;;;;;;10408627;28;20033;-54
2022/06/03 15:59:22;;;;;;;8.57;2.47;;;19.70;56.90;;;;;;10401984;28;20036;-57
2022/06/03 16:05:01;;;;;;;8.88;2.90;;;19.70;58.70;;;;;;10399967;28;20030;-57
2022/06/03 16:10:05;;;;;;;19.57;14.20;;;19.80;54.80;;;;;;10401112;28;20781;-58
2022/06/03 16:15:57;;;;;;;18.55;9.80;;;20.20;58.80;;;;;;10383844;28;20026;-59
2022/06/03 16:21:42;;;;;;;16.63;7.82;;;20.30;59.40;;;;;;10394095;28;20120;-57
2022/06/03 16:27:10;;;;;;;24.85;7.40;;;20.30;60.60;;;;;;10414738;28;20386;-57
2022/06/03 16:33:02;;;;;;;15.68;7.18;;;20.30;60.90;;;;;;10415463;28;20149;-57
2022/06/03 16:38:27;;;;;;;24.52;6.50;;;20.30;60.60;;;;;;10351711;28;20042;-58
2022/06/03 16:43:33;;;;;;;13.13;6.00;;;20.30;60.90;;;;;;10398218;28;20113;-58
2022/06/03 16:49:01;;;;;;;14.52;5.70;;;20.20;61.00;;;;;;10415857;28;20366;-56
2022/06/03 16:54:05;;;;;;;15.18;4.93;;;20.10;61.50;;;;;;10413254;28;20048;-57
2022/06/03 16:59:18;;;;;;;10.95;4.53;;;20.10;60.70;;;;;;10415124;28;20087;-57
2022/06/03 17:04:26;;;;;;;8.07;4.05;;;20.00;58.90;;;;;;10424927;28;20098;-58
2022/06/03 17:09:34;;;;;;;8.00;4.15;;;20.00;57.40;;;;;;10413517;28;20076;-57
2022/06/03 17:14:43;;;;;;;7.15;3.42;;;20.00;58.60;;;;;;10405164;28;20032;-57
2022/06/03 17:19:46;;;;;;;;;;;20.00;57.10;;;;;;10414692;28;20045;-57
2022/06/03 17:25:04;;;;;;;6.68;3.60;;;20.00;57.70;;;;;;10413187;28;19913;-57
2022/06/03 17:30:17;;;;;;;9.75;3.70;;;19.90;57.00;;;;;;10410534;28;20026;-57
2022/06/03 17:36:09;;;;;;;5.97;3.15;;;19.90;57.80;;;;;;10488903;28;21065;-52
2022/06/03 17:41:40;;;;;;;6.78;3.67;;;19.90;58.20;;;;;;10419806;28;20033;-56
2022/06/03 17:47:11;;;;;;;17.20;4.60;;;19.90;57.60;;;;;;10446981;28;20075;-56
2022/06/03 17:58:19;;;;;;;11.40;4.00;;;19.90;59.70;;;;;;10444818;28;20037;-56
2022/06/03 18:03:48;;;;;;;;;;;19.90;59.90;;;;;;10445114;28;20083;-59
2022/06/03 18:09:18;;;;;;;11.18;3.50;;;19.90;59.80;;;;;;10436390;28;20003;-58
2022/06/03 18:14:27;;;;;;;6.07;3.40;;;19.90;59.90;;;;;;10413389;28;20060;-58
2022/06/03 18:19:36;;;;;;;9.90;3.05;;;19.90;59.70;;;;;;10447153;28;20116;-58
2022/06/03 18:24:54;;;;;;;4.67;3.53;;;19.80;59.50;;;;;;10446051;28;20517;-56
2022/06/03 18:30:24;;;;;;;7.23;3.37;;;19.80;59.30;;;;;;10444780;28;20040;-58
2022/06/03 18:35:44;;;;;;;;;;;19.80;59.10;;;;;;10445479;28;20481;-58
2022/06/03 18:41:11;;;;;;;6.18;2.90;;;19.80;59.10;;;;;;10443241;28;20272;-58
2022/06/03 18:46:25;;;;;;;9.27;3.25;;;19.80;59.10;;;;;;10416512;28;20034;-57
2022/06/03 18:52:10;;;;;;;6.28;2.63;;;19.80;59.00;;;;;;10414564;28;20036;-57
2022/06/03 18:57:51;;;;;;;5.80;2.78;;;19.80;58.00;;;;;;10416980;28;20025;-59
2022/06/03 19:03:08;;;;;;;8.25;2.80;;;19.90;59.70;;;;;;10405567;28;20072;-57
2022/06/03 19:08:35;;;;;;;8.75;3.50;;;19.90;58.20;;;;;;10413850;28;20107;-57
2022/06/03 19:14:01;;;;;;;4.35;2.58;;;19.90;58.60;;;;;;10413679;28;20529;-57
2022/06/03 19:19:41;;;;;;;10.40;3.08;;;19.80;59.10;;;;;;10415736;28;20030;-56
2022/06/03 19:25:03;;;;;;;5.97;3.00;;;19.80;58.20;;;;;;10415047;28;20045;-57
2022/06/03 19:30:31;;;;;;;6.05;2.45;;;19.80;58.90;;;;;;10415088;28;20458;-57
2022/06/03 19:35:42;;;;;;;6.25;2.50;;;19.80;59.10;;;;;;10412699;28;20052;-56
2022/06/03 19:41:01;;;;;;;7.43;2.58;;;19.80;59.10;;;;;;10414526;28;20076;-56
2022/06/03 19:46:30;;;;;;;5.65;2.25;;;19.80;59.10;;;;;;10414706;28;20037;-56
2022/06/03 19:51:41;;;;;;;5.87;3.00;;;19.90;59.10;;;;;;10412357;28;20560;-56
2022/06/03 19:56:49;;;;;;;4.10;2.22;;;19.90;59.10;;;;;;10411960;28;20564;-56
2022/06/03 20:02:10;;;;;;;6.65;2.33;;;19.80;59.10;;;;;;10413898;28;20038;-56
2022/06/03 20:07:29;;;;;;;3.60;2.22;;;19.80;59.20;;;;;;10414435;28;20373;-57
2022/06/03 20:18:32;;;;;;;8.95;2.75;;;19.80;59.30;;;;;;10415849;28;20029;-56
2022/06/03 20:23:51;;;;;;;3.35;2.00;;;19.80;59.40;;;;;;10420891;28;20033;-57
2022/06/03 20:29:22;;;;;;;4.72;2.35;;;19.80;59.50;;;;;;10413915;28;20037;-57
2022/06/03 20:34:58;;;;;;;4.07;2.05;;;19.80;59.60;;;;;;10412185;28;20128;-57
2022/06/03 20:40:01;;;;;;;3.80;1.92;;;19.80;59.70;;;;;;10401371;28;20029;-56
2022/06/03 20:45:29;;;;;;;2.88;1.92;;;19.80;59.70;;;;;;10414167;28;20359;-57
2022/06/03 20:51:15;;;;;;;4.88;2.35;;;19.80;59.60;;;;;;10413547;28;20033;-57
2022/06/03 20:56:31;;;;;;;4.57;1.95;;;19.80;59.70;;;;;;10411302;28;20029;-57
2022/06/03 21:01:39;;;;;;;3.35;2.20;;;19.80;59.50;;;;;;10413673;28;20367;-57
2022/06/03 21:17:19;;;;;;;3.27;2.13;;;19.80;59.60;;;;;;10413506;28;20079;-56
2022/06/03 21:22:43;;;;;;;3.70;1.75;;;19.80;59.60;;;;;;10412009;28;20382;-57
2022/06/03 21:27:44;;;;;;;2.25;2.03;;;19.80;59.70;;;;;;10412030;28;20090;-57
2022/06/03 21:33:13;;;;;;;3.10;1.60;;;19.80;59.60;;;;;;10412380;28;20038;-57
2022/06/03 21:38:42;;;;;;;2.17;1.40;;;19.80;59.60;;;;;;10413236;28;20393;-57
2022/06/03 21:44:11;;;;;;;2.15;1.55;;;19.80;59.70;;;;;;10411385;28;20500;-57
2022/06/03 21:49:45;;;;;;;2.92;1.73;;;19.80;59.80;;;;;;10394334;28;20140;-57
2022/06/03 21:55:29;;;;;;;2.72;1.90;;;19.80;59.80;;;;;;10412556;28;20064;-57
2022/06/03 22:00:44;;;;;;;2.58;1.67;;;19.80;59.70;;;;;;10412339;28;20045;-57
2022/06/03 22:05:47;;;;;;;3.72;1.95;;;19.80;59.80;;;;;;10410806;28;20091;-56
2022/06/03 22:10:50;;;;;;;3.53;1.65;;;19.80;59.80;;;;;;10410849;28;20025;-57
2022/06/03 22:15:50;;;;;;;3.03;1.73;;;19.80;59.90;;;;;;10410418;28;20053;-57
2022/06/03 22:20:51;;;;;;;1.58;1.45;;;19.80;59.80;;;;;;10417569;28;20040;-56
2022/06/03 22:26:19;;;;;;;4.13;1.65;;;19.80;60.50;;;;;;10418436;28;20121;-56
2022/06/03 22:31:55;;;;;;;2.28;1.63;;;19.80;59.90;;;;;;10417906;28;20050;-57
2022/06/03 22:43:10;;;;;;;4.85;1.77;;;19.80;60.00;;;;;;10411864;28;20068;-57
2022/06/03 22:48:11;;;;;;;2.55;1.52;;;19.80;59.90;;;;;;10417968;28;20083;-56
2022/06/03 22:53:12;;;;;;;2.13;1.77;;;19.80;59.90;;;;;;10418501;28;20034;-56
2022/06/03 22:58:16;;;;;;;6.75;2.35;;;19.80;60.00;;;;;;10418359;28;20117;-57
2022/06/03 23:03:17;;;;;;;2.20;1.60;;;19.80;59.90;;;;;;10417023;28;20084;-56
2022/06/03 23:08:18;;;;;;;1.80;1.30;;;19.70;59.90;;;;;;10433712;28;20116;-56
2022/06/03 23:13:18;;;;;;;2.10;1.35;;;19.80;60.00;;;;;;10419893;28;20389;-57
2022/06/03 23:18:19;;;;;;;1.50;1.38;;;19.70;59.90;;;;;;10417896;28;20025;-56
2022/06/03 23:23:25;;;;;;;1.95;1.40;;;19.80;60.00;;;;;;10417463;28;20033;-57
2022/06/03 23:28:26;;;;;;;1.80;1.60;;;19.80;60.00;;;;;;10417098;28;20505;-56
2022/06/03 23:33:27;;;;;;;2.00;1.50;;;19.70;60.00;;;;;;10416741;28;20042;-57
2022/06/03 23:38:28;;;;;;;2.50;1.58;;;19.80;60.10;;;;;;10416109;28;20028;-57
2022/06/03 23:48:48;;;;;;;1.67;1.42;;;19.80;60.00;;;;;;10416868;28;20533;-57
2022/06/03 23:53:49;;;;;;;1.63;1.27;;;19.70;59.80;;;;;;10414948;28;20134;-56
2022/06/03 23:58:50;;;;;;;2.05;1.45;;;19.70;60.00;;;;;;10415029;28;20087;-56
